Wilson Gdynia — 8PSA — position and weather

sailwx.info

Track history (hours):
 
Tides and Currents Weather Stations Pressure Air Temp Water Temp Dewpoint Dewpoint Depression Visibility Wind Speed Wind Dir Waves Ship Positions

Wilson Gdynia

Last reported at 2016-Jul-28 11:28 UTC. Time now 2016-Jul-28 12:21 UTC.
Position N 51°28' E 003°42'.

Length 88 m; draft 5.7 m.

Type: Cargo ship. MMSI: 314192000.

Date/timePositionNaut miles runAvg speedWind from/ knotsBaromVisibWave heightAir tempDewpointWater temp
2016-Jul-28 11:28N 51°28' E 003°42'0 0.0
2016-Jul-28 10:22N 51°28' E 003°42'0 0.0
2016-Jul-28 09:28N 51°28' E 003°42'0 0.0
2016-Jul-28 08:16N 51°28' E 003°42'0 0.0
2016-Jul-28 07:28N 51°28' E 003°42'0 0.0
2016-Jul-28 06:28N 51°28' E 003°42'0 0.0
2016-Jul-28 05:28N 51°28' E 003°42'0 0.0
2016-Jul-28 04:31N 51°28' E 003°42'0 0.0
2016-Jul-28 03:31N 51°28' E 003°42'0 0.0
2016-Jul-28 02:31N 51°28' E 003°42'0 0.0
2016-Jul-28 01:31N 51°28' E 003°42'0 0.0
2016-Jul-28 00:31N 51°28' E 003°42'0 0.0
2016-Jul-27 23:25N 51°28' E 003°42'0 0.0
2016-Jul-27 22:28N 51°28' E 003°42'0 0.0
2016-Jul-27 21:31N 51°28' E 003°42'0 0.0
2016-Jul-27 20:28N 51°28' E 003°42'0 0.0
2016-Jul-27 19:28N 51°28' E 003°42'0 0.0
2016-Jul-27 18:28N 51°28' E 003°42'0 0.0
2016-Jul-27 17:28N 51°28' E 003°42'0 0.0
2016-Jul-27 16:28N 51°28' E 003°42'2 1.8
2016-Jul-27 15:34N 51°27' E 003°40'10 9.9
2016-Jul-27 14:33N 51°31' E 003°26'95 8.4
2016-Jul-27 03:16N 52°47' E 001°52'810.7
2016-Jul-27 02:33N 52°53' E 001°43'1111.4
2016-Jul-27 01:33N 53°01' E 001°30'4511.3
2016-Jul-26 21:33N 53°27' E 000°29'1110.7
2016-Jul-26 20:33N 53°32' E 000°13'8 8.4
2016-Jul-26 19:33N 53°35' E 000°00'7 7.3
2016-Jul-26 18:33N 53°38' W 000°11'0 0.2
2016-Jul-26 17:32N 53°38' W 000°12'0 0.0
2016-Jul-26 16:32N 53°38' W 000°12'0 0.0
2016-Jul-26 15:32N 53°38' W 000°12'0 0.0
2016-Jul-26 14:26N 53°38' W 000°12'0 0.0
2016-Jul-26 13:32N 53°38' W 000°12'0 0.0
2016-Jul-26 12:32N 53°38' W 000°12'0 0.0
2016-Jul-26 11:32N 53°38' W 000°12'0 0.0
2016-Jul-26 10:32N 53°38' W 000°12'0 0.0
2016-Jul-26 09:29N 53°38' W 000°12'0 0.0
2016-Jul-26 08:26N 53°38' W 000°12'0 0.0
2016-Jul-26 07:20N 53°38' W 000°12'0 0.0
2016-Jul-26 06:29N 53°38' W 000°12'0 0.0
2016-Jul-26 05:32N 53°38' W 000°12'0 0.0
2016-Jul-26 04:32N 53°38' W 000°12'0 0.0
2016-Jul-26 03:32N 53°38' W 000°12'0 0.0
2016-Jul-26 02:32N 53°38' W 000°12'0 0.0
2016-Jul-26 01:32N 53°38' W 000°12'0 0.2
2016-Jul-26 00:32N 53°38' W 000°12'0 0.0
2016-Jul-25 23:33N 53°38' W 000°12'0 0.0
2016-Jul-25 22:33N 53°38' W 000°12'0 0.0
2016-Jul-25 21:33N 53°38' W 000°12'0 0.0
2016-Jul-25 20:33N 53°38' W 000°12'0 0.0
2016-Jul-25 19:29N 53°38' W 000°12'0 0.0
2016-Jul-25 18:33N 53°38' W 000°12'0 0.0
2016-Jul-25 17:33N 53°38' W 000°12'0 0.0
2016-Jul-25 16:32N 53°38' W 000°12'0 0.0
2016-Jul-25 15:32N 53°38' W 000°12'0 0.0
2016-Jul-25 14:33N 53°38' W 000°12'0 0.0
2016-Jul-25 13:32N 53°38' W 000°12'0 0.0
2016-Jul-25 12:32N 53°38' W 000°12'0 0.0
2016-Jul-25 11:32N 53°38' W 000°12'0 0.0
2016-Jul-25 10:32N 53°38' W 000°12'0 0.0
2016-Jul-25 09:33N 53°38' W 000°12'0 0.0
2016-Jul-25 08:32N 53°38' W 000°12'0 0.0
2016-Jul-25 07:32N 53°38' W 000°12'0 0.0
2016-Jul-25 06:33N 53°38' W 000°12'0 0.0
2016-Jul-25 05:30N 53°38' W 000°12'0 0.0
2016-Jul-25 04:32N 53°38' W 000°12'0 0.0
2016-Jul-25 03:32N 53°38' W 000°12'0 0.0
2016-Jul-25 02:33N 53°38' W 000°12'0 0.0
2016-Jul-25 01:33N 53°38' W 000°12'0 0.0
2016-Jul-25 00:33N 53°38' W 000°12'0 0.0
2016-Jul-24 23:32N 53°38' W 000°12'0 0.0
2016-Jul-24 22:32N 53°38' W 000°12'0 0.0
2016-Jul-24 21:29N 53°38' W 000°12'0 0.0
2016-Jul-24 20:32N 53°38' W 000°12'0 0.0
2016-Jul-24 19:32N 53°38' W 000°12'0 0.0
2016-Jul-24 18:29N 53°38' W 000°12'0 0.0
2016-Jul-24 17:33N 53°38' W 000°12'0 0.0
2016-Jul-24 16:32N 53°38' W 000°12'0 0.0
2016-Jul-24 15:29N 53°38' W 000°12'0 0.0
2016-Jul-24 14:32N 53°38' W 000°12'0 0.0
2016-Jul-24 13:33N 53°38' W 000°12'0 0.0
2016-Jul-24 12:32N 53°38' W 000°12'0 0.0
2016-Jul-24 11:29N 53°38' W 000°12'0 0.0
2016-Jul-24 10:33N 53°38' W 000°12'0 0.0
2016-Jul-24 09:33N 53°38' W 000°12'0 0.0
2016-Jul-24 08:33N 53°38' W 000°12'0 0.0
2016-Jul-24 07:33N 53°38' W 000°12'0 0.0
2016-Jul-24 06:32N 53°38' W 000°12'0 0.0
2016-Jul-24 05:33N 53°38' W 000°12'0 0.0
2016-Jul-24 04:33N 53°38' W 000°12'0 0.0
2016-Jul-24 03:32N 53°38' W 000°12'0 0.0
2016-Jul-24 02:32N 53°38' W 000°12'0 0.0
2016-Jul-24 01:32N 53°38' W 000°12'0 0.0
2016-Jul-24 00:33N 53°38' W 000°12'0 0.0
2016-Jul-23 23:32N 53°38' W 000°12'0 0.0
2016-Jul-23 22:30N 53°38' W 000°12'0 0.0
2016-Jul-23 21:33N 53°38' W 000°12'0 0.0
2016-Jul-23 20:33N 53°38' W 000°12'0 0.0
2016-Jul-23 19:33N 53°38' W 000°12'0 0.0
2016-Jul-23 18:32N 53°38' W 000°12'0 0.0
2016-Jul-23 17:32N 53°38' W 000°12'0 0.0
2016-Jul-23 16:33N 53°38' W 000°12'0 0.0
2016-Jul-23 15:32N 53°38' W 000°12'0 0.0
2016-Jul-23 14:33N 53°38' W 000°12'0 0.0
2016-Jul-23 13:33N 53°38' W 000°12'0 0.0
2016-Jul-23 12:32N 53°38' W 000°12'0 0.0
2016-Jul-23 11:32N 53°38' W 000°12'0 0.0
2016-Jul-23 10:32N 53°38' W 000°12'0 0.0
2016-Jul-23 09:33N 53°38' W 000°12'1 0.8
2016-Jul-23 08:33N 53°38' W 000°11'9 9.4
2016-Jul-23 07:33N 53°35' E 000°04'1010.2
2016-Jul-23 06:33N 53°31' E 000°20'18 9.1
2016-Jul-23 04:33N 53°23' E 000°48'9 8.8
2016-Jul-23 03:33N 53°20' E 001°01'1010.3
2016-Jul-23 02:33N 53°12' E 001°13'1212.3
2016-Jul-23 01:34N 53°03' E 001°27'1211.8
2016-Jul-23 00:33N 52°54' E 001°40'1110.4
2016-Jul-22 23:30N 52°46' E 001°53'8 8.8
2016-Jul-22 22:33N 52°38' E 001°56'8 8.4
2016-Jul-22 21:33N 52°30' E 001°55'9 8.8
2016-Jul-22 20:33N 52°22' E 001°51'10 9.9
2016-Jul-22 19:33N 52°13' E 001°44'1110.9
2016-Jul-22 18:33N 52°02' E 001°38'1110.6
2016-Jul-22 17:33N 51°56' E 001°25'8 8.3
2016-Jul-22 16:33N 51°60' E 001°13'3 3.1
2016-Jul-22 15:31N 52°02' E 001°09'0 0.0
2016-Jul-22 14:31N 52°02' E 001°09'0 0.0
2016-Jul-22 13:22N 52°02' E 001°09'0 0.0
2016-Jul-22 12:22N 52°02' E 001°09'0 0.0
2016-Jul-22 11:31N 52°02' E 001°09'0 0.0
2016-Jul-22 10:31N 52°02' E 001°09'0 0.0
2016-Jul-22 09:31N 52°02' E 001°09'0 0.0
2016-Jul-22 08:25N 52°02' E 001°09'0 0.0
2016-Jul-22 07:31N 52°02' E 001°09'0 0.0
2016-Jul-22 04:28N 52°02' E 001°09'0 0.0
2016-Jul-22 03:22N 52°02' E 001°09'0 0.0
2016-Jul-22 02:22N 52°02' E 001°09'0 0.0
2016-Jul-22 01:31N 52°02' E 001°09'0 0.0
2016-Jul-22 00:28N 52°02' E 001°09'0 0.0
2016-Jul-21 23:33N 52°02' E 001°09'5 4.7
2016-Jul-21 22:33N 51°60' E 001°16'7 7.4
2016-Jul-21 21:33N 51°56' E 001°26'4 3.8
2016-Jul-21 20:33N 51°58' E 001°32'0 0.0
2016-Jul-21 19:33N 51°58' E 001°32'0 0.1
2016-Jul-21 18:33N 51°58' E 001°32'0 0.0
2016-Jul-21 17:33N 51°58' E 001°32'0 0.0
2016-Jul-21 16:33N 51°58' E 001°32'0 0.0
2016-Jul-21 15:33N 51°58' E 001°32'0 0.0
2016-Jul-21 14:33N 51°58' E 001°32'0 0.0
2016-Jul-21 13:33N 51°58' E 001°32'0 0.0
2016-Jul-21 12:33N 51°58' E 001°32'0 0.1
2016-Jul-21 11:33N 51°58' E 001°32'0 0.0
2016-Jul-21 10:33N 51°58' E 001°32'3 2.5
2016-Jul-21 09:33N 51°60' E 001°35'1010.0
2016-Jul-21 08:33N 52°06' E 001°48'10 9.9
2016-Jul-21 07:33N 52°11' E 002°01'11 9.9
2016-Jul-21 06:28N 52°17' E 002°16'19 9.5
2016-Jul-21 04:28N 52°28' E 002°42'26 9.0
2016-Jul-21 01:31N 52°42' E 003°18'9 9.1
2016-Jul-21 00:32N 52°47' E 003°31'1110.0
2016-Jul-20 23:26N 52°53' E 003°46'910.5
2016-Jul-20 22:33N 52°58' E 003°59'42 9.5
2016-Jul-20 18:05N 53°30' E 004°46'4 8.3
2016-Jul-20 17:33N 53°32' E 004°52'9 8.7
2016-Jul-20 16:34N 53°35' E 005°06'10 9.7
2016-Jul-20 15:34N 53°38' E 005°22'1110.9
2016-Jul-20 14:33N 53°41' E 005°39'1111.1
2016-Jul-20 13:33N 53°45' E 005°57'1111.0
2016-Jul-20 12:33N 53°48' E 006°14'1010.5
2016-Jul-20 11:33N 53°51' E 006°32'10 9.9
2016-Jul-20 10:34N 53°54' E 006°48'9 8.9
2016-Jul-20 09:34N 53°56' E 007°02'9 8.8
2016-Jul-20 08:33N 53°58' E 007°17'9 8.9
2016-Jul-20 07:33N 53°60' E 007°32'9 9.5
2016-Jul-20 06:34N 54°02' E 007°48'1010.4
2016-Jul-20 05:33N 54°01' E 008°05'1212.1
2016-Jul-20 04:33N 53°59' E 008°26'1212.4
2016-Jul-20 03:33N 53°53' E 008°43'1110.9
2016-Jul-20 02:33N 53°52' E 009°02'5 4.6
2016-Jul-20 01:33N 53°54' E 009°09'5 4.6
2016-Jul-20 00:33N 53°57' E 009°14'8 8.2
2016-Jul-19 23:32N 54°05' E 009°19'26 6.5
2016-Jul-19 19:33N 54°21' E 009°54'6 5.8
2016-Jul-19 18:33N 54°22' E 010°04'3 2.8
2016-Jul-19 17:33N 54°22' E 010°08'5 4.6
2016-Jul-19 16:33N 54°26' E 010°13'11 9.1
2016-Jul-19 15:18N 54°33' E 010°28'7 9.4
2016-Jul-19 14:33N 54°35' E 010°40'10 9.7
2016-Jul-19 13:33N 54°36' E 010°57'9 9.3
2016-Jul-19 12:33N 54°36' E 011°13'10 9.5
2016-Jul-19 11:33N 54°32' E 011°27'1010.0
2016-Jul-19 10:33N 54°27' E 011°43'9 9.3
2016-Jul-19 09:33N 54°26' E 011°59'8 8.4
2016-Jul-19 08:33N 54°30' E 012°12'9 9.4
2016-Jul-19 07:33N 54°38' E 012°20'1010.0
2016-Jul-19 06:33N 54°44' E 012°34'4410.5
2016-Jul-19 02:23N 54°60' E 013°45'910.5
2016-Jul-19 01:33N 55°03' E 013°59'1110.6
2016-Jul-19 00:34N 55°10' E 014°13'1110.7
2016-Jul-18 23:33N 55°18' E 014°25'1010.4
2016-Jul-18 22:34N 55°26' E 014°37'1010.3
2016-Jul-18 21:33N 55°27' E 014°55'1010.4
2016-Jul-18 20:33N 55°28' E 015°14'1010.0
2016-Jul-18 19:31N 55°29' E 015°32'  
Track history (hours):
 
Tides and Currents Weather Stations Pressure Air Temp Water Temp Dewpoint Dewpoint Depression Visibility Wind Speed Wind Dir Waves Ship Positions

Wilson Gdynia

Last reported at 2016-Jul-28 11:28 UTC. Time now 2016-Jul-28 12:21 UTC.
Position N 51°28' E 003°42'.

Length 88 m; draft 5.7 m.

Type: Cargo ship. MMSI: 314192000.

Date/timePositionNaut miles runAvg speedWind from/ knotsBaromVisibWave heightAir tempDewpointWater temp
2016-Jul-28 11:28N 51°28' E 003°42'0 0.0
2016-Jul-28 10:22N 51°28' E 003°42'0 0.0
2016-Jul-28 09:28N 51°28' E 003°42'0 0.0
2016-Jul-28 08:16N 51°28' E 003°42'0 0.0
2016-Jul-28 07:28N 51°28' E 003°42'0 0.0
2016-Jul-28 06:28N 51°28' E 003°42'0 0.0
2016-Jul-28 05:28N 51°28' E 003°42'0 0.0
2016-Jul-28 04:31N 51°28' E 003°42'0 0.0
2016-Jul-28 03:31N 51°28' E 003°42'0 0.0
2016-Jul-28 02:31N 51°28' E 003°42'0 0.0
2016-Jul-28 01:31N 51°28' E 003°42'0 0.0
2016-Jul-28 00:31N 51°28' E 003°42'0 0.0
2016-Jul-27 23:25N 51°28' E 003°42'0 0.0
2016-Jul-27 22:28N 51°28' E 003°42'0 0.0
2016-Jul-27 21:31N 51°28' E 003°42'0 0.0
2016-Jul-27 20:28N 51°28' E 003°42'0 0.0
2016-Jul-27 19:28N 51°28' E 003°42'0 0.0
2016-Jul-27 18:28N 51°28' E 003°42'0 0.0
2016-Jul-27 17:28N 51°28' E 003°42'0 0.0
2016-Jul-27 16:28N 51°28' E 003°42'2 1.8
2016-Jul-27 15:34N 51°27' E 003°40'10 9.9
2016-Jul-27 14:33N 51°31' E 003°26'95 8.4
2016-Jul-27 03:16N 52°47' E 001°52'810.7
2016-Jul-27 02:33N 52°53' E 001°43'1111.4
2016-Jul-27 01:33N 53°01' E 001°30'4511.3
2016-Jul-26 21:33N 53°27' E 000°29'1110.7
2016-Jul-26 20:33N 53°32' E 000°13'8 8.4
2016-Jul-26 19:33N 53°35' E 000°00'7 7.3
2016-Jul-26 18:33N 53°38' W 000°11'0 0.2
2016-Jul-26 17:32N 53°38' W 000°12'0 0.0
2016-Jul-26 16:32N 53°38' W 000°12'0 0.0
2016-Jul-26 15:32N 53°38' W 000°12'0 0.0
2016-Jul-26 14:26N 53°38' W 000°12'0 0.0
2016-Jul-26 13:32N 53°38' W 000°12'0 0.0
2016-Jul-26 12:32N 53°38' W 000°12'0 0.0
2016-Jul-26 11:32N 53°38' W 000°12'0 0.0
2016-Jul-26 10:32N 53°38' W 000°12'0 0.0
2016-Jul-26 09:29N 53°38' W 000°12'0 0.0
2016-Jul-26 08:26N 53°38' W 000°12'0 0.0
2016-Jul-26 07:20N 53°38' W 000°12'0 0.0
2016-Jul-26 06:29N 53°38' W 000°12'0 0.0
2016-Jul-26 05:32N 53°38' W 000°12'0 0.0
2016-Jul-26 04:32N 53°38' W 000°12'0 0.0
2016-Jul-26 03:32N 53°38' W 000°12'0 0.0
2016-Jul-26 02:32N 53°38' W 000°12'0 0.0
2016-Jul-26 01:32N 53°38' W 000°12'0 0.2
2016-Jul-26 00:32N 53°38' W 000°12'0 0.0
2016-Jul-25 23:33N 53°38' W 000°12'0 0.0
2016-Jul-25 22:33N 53°38' W 000°12'0 0.0
2016-Jul-25 21:33N 53°38' W 000°12'0 0.0
2016-Jul-25 20:33N 53°38' W 000°12'0 0.0
2016-Jul-25 19:29N 53°38' W 000°12'0 0.0
2016-Jul-25 18:33N 53°38' W 000°12'0 0.0
2016-Jul-25 17:33N 53°38' W 000°12'0 0.0
2016-Jul-25 16:32N 53°38' W 000°12'0 0.0
2016-Jul-25 15:32N 53°38' W 000°12'0 0.0
2016-Jul-25 14:33N 53°38' W 000°12'0 0.0
2016-Jul-25 13:32N 53°38' W 000°12'0 0.0
2016-Jul-25 12:32N 53°38' W 000°12'0 0.0
2016-Jul-25 11:32N 53°38' W 000°12'0 0.0
2016-Jul-25 10:32N 53°38' W 000°12'0 0.0
2016-Jul-25 09:33N 53°38' W 000°12'0 0.0
2016-Jul-25 08:32N 53°38' W 000°12'0 0.0
2016-Jul-25 07:32N 53°38' W 000°12'0 0.0
2016-Jul-25 06:33N 53°38' W 000°12'0 0.0
2016-Jul-25 05:30N 53°38' W 000°12'0 0.0
2016-Jul-25 04:32N 53°38' W 000°12'0 0.0
2016-Jul-25 03:32N 53°38' W 000°12'0 0.0
2016-Jul-25 02:33N 53°38' W 000°12'0 0.0
2016-Jul-25 01:33N 53°38' W 000°12'0 0.0
2016-Jul-25 00:33N 53°38' W 000°12'0 0.0
2016-Jul-24 23:32N 53°38' W 000°12'0 0.0
2016-Jul-24 22:32N 53°38' W 000°12'0 0.0
2016-Jul-24 21:29N 53°38' W 000°12'0 0.0
2016-Jul-24 20:32N 53°38' W 000°12'0 0.0
2016-Jul-24 19:32N 53°38' W 000°12'0 0.0
2016-Jul-24 18:29N 53°38' W 000°12'0 0.0
2016-Jul-24 17:33N 53°38' W 000°12'0 0.0
2016-Jul-24 16:32N 53°38' W 000°12'0 0.0
2016-Jul-24 15:29N 53°38' W 000°12'0 0.0
2016-Jul-24 14:32N 53°38' W 000°12'0 0.0
2016-Jul-24 13:33N 53°38' W 000°12'0 0.0
2016-Jul-24 12:32N 53°38' W 000°12'0 0.0
2016-Jul-24 11:29N 53°38' W 000°12'0 0.0
2016-Jul-24 10:33N 53°38' W 000°12'0 0.0
2016-Jul-24 09:33N 53°38' W 000°12'0 0.0
2016-Jul-24 08:33N 53°38' W 000°12'0 0.0
2016-Jul-24 07:33N 53°38' W 000°12'0 0.0
2016-Jul-24 06:32N 53°38' W 000°12'0 0.0
2016-Jul-24 05:33N 53°38' W 000°12'0 0.0
2016-Jul-24 04:33N 53°38' W 000°12'0 0.0
2016-Jul-24 03:32N 53°38' W 000°12'0 0.0
2016-Jul-24 02:32N 53°38' W 000°12'0 0.0
2016-Jul-24 01:32N 53°38' W 000°12'0 0.0
2016-Jul-24 00:33N 53°38' W 000°12'0 0.0
2016-Jul-23 23:32N 53°38' W 000°12'0 0.0
2016-Jul-23 22:30N 53°38' W 000°12'0 0.0
2016-Jul-23 21:33N 53°38' W 000°12'0 0.0
2016-Jul-23 20:33N 53°38' W 000°12'0 0.0
2016-Jul-23 19:33N 53°38' W 000°12'0 0.0
2016-Jul-23 18:32N 53°38' W 000°12'0 0.0
2016-Jul-23 17:32N 53°38' W 000°12'0 0.0
2016-Jul-23 16:33N 53°38' W 000°12'0 0.0
2016-Jul-23 15:32N 53°38' W 000°12'0 0.0
2016-Jul-23 14:33N 53°38' W 000°12'0 0.0
2016-Jul-23 13:33N 53°38' W 000°12'0 0.0
2016-Jul-23 12:32N 53°38' W 000°12'0 0.0
2016-Jul-23 11:32N 53°38' W 000°12'0 0.0
2016-Jul-23 10:32N 53°38' W 000°12'0 0.0
2016-Jul-23 09:33N 53°38' W 000°12'1 0.8
2016-Jul-23 08:33N 53°38' W 000°11'9 9.4
2016-Jul-23 07:33N 53°35' E 000°04'1010.2
2016-Jul-23 06:33N 53°31' E 000°20'18 9.1
2016-Jul-23 04:33N 53°23' E 000°48'9 8.8
2016-Jul-23 03:33N 53°20' E 001°01'1010.3
2016-Jul-23 02:33N 53°12' E 001°13'1212.3
2016-Jul-23 01:34N 53°03' E 001°27'1211.8
2016-Jul-23 00:33N 52°54' E 001°40'1110.4
2016-Jul-22 23:30N 52°46' E 001°53'8 8.8
2016-Jul-22 22:33N 52°38' E 001°56'8 8.4
2016-Jul-22 21:33N 52°30' E 001°55'9 8.8
2016-Jul-22 20:33N 52°22' E 001°51'10 9.9
2016-Jul-22 19:33N 52°13' E 001°44'1110.9
2016-Jul-22 18:33N 52°02' E 001°38'1110.6
2016-Jul-22 17:33N 51°56' E 001°25'8 8.3
2016-Jul-22 16:33N 51°60' E 001°13'3 3.1
2016-Jul-22 15:31N 52°02' E 001°09'0 0.0
2016-Jul-22 14:31N 52°02' E 001°09'0 0.0
2016-Jul-22 13:22N 52°02' E 001°09'0 0.0
2016-Jul-22 12:22N 52°02' E 001°09'0 0.0
2016-Jul-22 11:31N 52°02' E 001°09'0 0.0
2016-Jul-22 10:31N 52°02' E 001°09'0 0.0
2016-Jul-22 09:31N 52°02' E 001°09'0 0.0
2016-Jul-22 08:25N 52°02' E 001°09'0 0.0
2016-Jul-22 07:31N 52°02' E 001°09'0 0.0
2016-Jul-22 04:28N 52°02' E 001°09'0 0.0
2016-Jul-22 03:22N 52°02' E 001°09'0 0.0
2016-Jul-22 02:22N 52°02' E 001°09'0 0.0
2016-Jul-22 01:31N 52°02' E 001°09'0 0.0
2016-Jul-22 00:28N 52°02' E 001°09'0 0.0
2016-Jul-21 23:33N 52°02' E 001°09'5 4.7
2016-Jul-21 22:33N 51°60' E 001°16'7 7.4
2016-Jul-21 21:33N 51°56' E 001°26'4 3.8
2016-Jul-21 20:33N 51°58' E 001°32'0 0.0
2016-Jul-21 19:33N 51°58' E 001°32'0 0.1
2016-Jul-21 18:33N 51°58' E 001°32'0 0.0
2016-Jul-21 17:33N 51°58' E 001°32'0 0.0
2016-Jul-21 16:33N 51°58' E 001°32'0 0.0
2016-Jul-21 15:33N 51°58' E 001°32'0 0.0
2016-Jul-21 14:33N 51°58' E 001°32'0 0.0
2016-Jul-21 13:33N 51°58' E 001°32'0 0.0
2016-Jul-21 12:33N 51°58' E 001°32'0 0.1
2016-Jul-21 11:33N 51°58' E 001°32'0 0.0
2016-Jul-21 10:33N 51°58' E 001°32'3 2.5
2016-Jul-21 09:33N 51°60' E 001°35'1010.0
2016-Jul-21 08:33N 52°06' E 001°48'10 9.9
2016-Jul-21 07:33N 52°11' E 002°01'11 9.9
2016-Jul-21 06:28N 52°17' E 002°16'19 9.5
2016-Jul-21 04:28N 52°28' E 002°42'26 9.0
2016-Jul-21 01:31N 52°42' E 003°18'9 9.1
2016-Jul-21 00:32N 52°47' E 003°31'1110.0
2016-Jul-20 23:26N 52°53' E 003°46'910.5
2016-Jul-20 22:33N 52°58' E 003°59'42 9.5
2016-Jul-20 18:05N 53°30' E 004°46'4 8.3
2016-Jul-20 17:33N 53°32' E 004°52'9 8.7
2016-Jul-20 16:34N 53°35' E 005°06'10 9.7
2016-Jul-20 15:34N 53°38' E 005°22'1110.9
2016-Jul-20 14:33N 53°41' E 005°39'1111.1
2016-Jul-20 13:33N 53°45' E 005°57'1111.0
2016-Jul-20 12:33N 53°48' E 006°14'1010.5
2016-Jul-20 11:33N 53°51' E 006°32'10 9.9
2016-Jul-20 10:34N 53°54' E 006°48'9 8.9
2016-Jul-20 09:34N 53°56' E 007°02'9 8.8
2016-Jul-20 08:33N 53°58' E 007°17'9 8.9
2016-Jul-20 07:33N 53°60' E 007°32'9 9.5
2016-Jul-20 06:34N 54°02' E 007°48'1010.4
2016-Jul-20 05:33N 54°01' E 008°05'1212.1
2016-Jul-20 04:33N 53°59' E 008°26'1212.4
2016-Jul-20 03:33N 53°53' E 008°43'1110.9
2016-Jul-20 02:33N 53°52' E 009°02'5 4.6
2016-Jul-20 01:33N 53°54' E 009°09'5 4.6
2016-Jul-20 00:33N 53°57' E 009°14'8 8.2
2016-Jul-19 23:32N 54°05' E 009°19'26 6.5
2016-Jul-19 19:33N 54°21' E 009°54'6 5.8
2016-Jul-19 18:33N 54°22' E 010°04'3 2.8
2016-Jul-19 17:33N 54°22' E 010°08'5 4.6
2016-Jul-19 16:33N 54°26' E 010°13'11 9.1
2016-Jul-19 15:18N 54°33' E 010°28'7 9.4
2016-Jul-19 14:33N 54°35' E 010°40'10 9.7
2016-Jul-19 13:33N 54°36' E 010°57'9 9.3
2016-Jul-19 12:33N 54°36' E 011°13'10 9.5
2016-Jul-19 11:33N 54°32' E 011°27'1010.0
2016-Jul-19 10:33N 54°27' E 011°43'9 9.3
2016-Jul-19 09:33N 54°26' E 011°59'8 8.4
2016-Jul-19 08:33N 54°30' E 012°12'9 9.4
2016-Jul-19 07:33N 54°38' E 012°20'1010.0
2016-Jul-19 06:33N 54°44' E 012°34'4410.5
2016-Jul-19 02:23N 54°60' E 013°45'910.5
2016-Jul-19 01:33N 55°03' E 013°59'1110.6
2016-Jul-19 00:34N 55°10' E 014°13'1110.7
2016-Jul-18 23:33N 55°18' E 014°25'1010.4
2016-Jul-18 22:34N 55°26' E 014°37'1010.3
2016-Jul-18 21:33N 55°27' E 014°55'1010.4
2016-Jul-18 20:33N 55°28' E 015°14'1010.0
2016-Jul-18 19:31N 55°29' E 015°32'  

Dump ship's entire track history